Time;durP1;ratioP1;P1;durP2;ratioP2;P2;SDS_P1;SDS_P2;PMS_P1;PMS_P2;Temp;Humidity;BMP_temperature;BMP_pressure;BME280_temperature;BME280_humidity;BME280_pressure;Samples;Min_cycle;Max_cycle;Signal;HPM_P1;HPM_P2
2021/04/19 00:01:29;;;;;;;21.97;11.83;;;10.20;74.50;;;;;;5071934;28;20029;-75
2021/04/19 00:03:55;;;;;;;20.10;12.07;;;10.10;74.40;;;;;;5055804;28;20419;-75
2021/04/19 00:06:21;;;;;;;22.80;11.67;;;10.10;74.70;;;;;;5038409;28;20040;-75
2021/04/19 00:08:46;;;;;;;16.77;10.43;;;10.00;74.90;;;;;;5072655;28;20044;-74
2021/04/19 00:11:12;;;;;;;18.60;11.30;;;9.90;75.00;;;;;;5063095;28;20025;-74
2021/04/19 00:13:38;;;;;;;22.40;11.50;;;9.90;75.10;;;;;;5056340;28;20036;-74
2021/04/19 00:16:04;;;;;;;14.97;10.30;;;9.90;75.10;;;;;;5070927;28;20050;-74
2021/04/19 00:18:30;;;;;;;19.60;11.30;;;9.90;75.20;;;;;;5072107;28;20694;-77
2021/04/19 00:20:55;;;;;;;20.37;13.60;;;9.90;75.40;;;;;;5083381;28;20033;-75
2021/04/19 00:23:21;;;;;;;24.40;15.57;;;9.90;75.10;;;;;;5070812;28;20028;-76
2021/04/19 00:25:47;;;;;;;16.70;13.00;;;9.90;75.10;;;;;;5073016;28;20032;-76
2021/04/19 00:28:12;;;;;;;17.73;12.40;;;9.90;75.20;;;;;;5054192;28;20037;-81
2021/04/19 00:30:38;;;;;;;17.27;11.53;;;9.80;75.00;;;;;;5071335;28;20390;-75
2021/04/19 00:33:04;;;;;;;17.23;10.73;;;9.80;75.10;;;;;;5071406;28;20033;-76
2021/04/19 00:35:30;;;;;;;21.23;10.60;;;9.80;75.20;;;;;;5069134;28;20265;-76
2021/04/19 00:37:56;;;;;;;17.10;10.27;;;9.80;75.30;;;;;;5071348;28;20600;-76
2021/04/19 00:40:22;;;;;;;15.97;10.47;;;9.80;75.10;;;;;;5070466;28;20032;-75
2021/04/19 00:42:53;;;;;;;19.00;10.47;;;9.70;75.00;;;;;;5071739;28;20029;-74
2021/04/19 00:45:19;;;;;;;17.90;9.87;;;9.80;75.10;;;;;;5052199;28;20033;-77
2021/04/19 00:47:46;;;;;;;13.17;9.03;;;9.80;75.00;;;;;;5051610;28;20032;-75
2021/04/19 00:50:20;;;;;;;16.27;9.47;;;9.80;74.90;;;;;;5052455;28;20025;-79
2021/04/19 00:52:47;;;;;;;17.30;9.07;;;9.90;74.80;;;;;;5051083;28;20505;-75
2021/04/19 00:55:15;;;;;;;15.57;9.00;;;9.80;74.60;;;;;;5052200;28;20170;-79
2021/04/19 00:57:42;;;;;;;16.37;8.83;;;9.90;74.60;;;;;;5050951;28;20142;-76
2021/04/19 01:00:16;;;;;;;11.97;8.77;;;9.90;74.40;;;;;;5052220;28;20028;-76
2021/04/19 01:02:43;;;;;;;15.73;9.57;;;10.00;74.30;;;;;;5050929;28;20474;-76
2021/04/19 01:05:15;;;;;;;14.17;9.43;;;10.00;74.10;;;;;;5034033;28;20025;-75
2021/04/19 01:07:41;;;;;;;10.02;8.25;;;10.00;74.00;;;;;;5050584;28;20033;-76
2021/04/19 01:10:07;;;;;;;15.90;9.33;;;10.00;73.90;;;;;;5055987;28;20580;-75
2021/04/19 01:12:33;;;;;;;12.80;8.70;;;10.00;73.70;;;;;;5069804;28;20032;-79
2021/04/19 01:14:58;;;;;;;14.30;9.47;;;10.00;73.70;;;;;;5068007;28;20394;-76
2021/04/19 01:17:24;;;;;;;14.87;9.03;;;10.00;73.60;;;;;;5049991;28;20044;-76
2021/04/19 01:19:50;;;;;;;14.30;8.80;;;10.00;73.50;;;;;;5050472;28;20033;-76
2021/04/19 01:22:16;;;;;;;14.20;9.37;;;10.10;73.50;;;;;;5051431;28;20025;-79
2021/04/19 01:24:42;;;;;;;13.23;8.50;;;10.10;73.70;;;;;;5050981;28;20097;-75
2021/04/19 01:27:08;;;;;;;10.37;8.67;;;10.00;73.00;;;;;;5051626;28;20072;-77
2021/04/19 01:29:33;;;;;;;14.97;9.07;;;10.00;73.00;;;;;;5049314;28;20108;-76
2021/04/19 01:32:00;;;;;;;14.77;9.93;;;10.00;73.20;;;;;;5051762;28;20122;-75
2021/04/19 01:34:25;;;;;;;16.90;10.97;;;10.00;73.10;;;;;;5050820;28;20037;-77
2021/04/19 01:36:51;;;;;;;16.77;12.63;;;10.00;73.20;;;;;;5050445;28;20048;-76
2021/04/19 01:39:17;;;;;;;16.53;11.67;;;10.00;73.20;;;;;;5051607;28;20044;-76
2021/04/19 01:41:46;;;;;;;14.43;10.83;;;9.90;73.20;;;;;;5050667;28;20466;-75
2021/04/19 01:44:13;;;;;;;18.10;11.93;;;9.90;73.10;;;;;;5053515;28;20119;-76
2021/04/19 01:46:39;;;;;;;15.07;10.73;;;9.90;73.10;;;;;;5052456;28;20482;-75
2021/04/19 01:49:16;;;;;;;12.83;8.97;;;9.80;73.20;;;;;;5070098;28;20041;-77
2021/04/19 01:51:42;;;;;;;18.27;13.67;;;9.70;73.00;;;;;;5070437;28;20017;-77
2021/04/19 01:54:08;;;;;;;19.67;12.43;;;9.70;73.20;;;;;;5069471;28;20043;-76
2021/04/19 01:56:33;;;;;;;19.03;12.30;;;9.60;73.20;;;;;;5051978;28;20140;-76
2021/04/19 01:59:00;;;;;;;17.90;12.87;;;9.50;73.20;;;;;;5053015;28;20035;-76
2021/04/19 02:01:27;;;;;;;17.10;12.00;;;9.50;73.40;;;;;;5069160;28;20038;-76
2021/04/19 02:04:28;;;;;;;15.33;10.33;;;9.40;73.80;;;;;;5069595;28;20036;-76
2021/04/19 02:06:56;;;;;;;18.37;12.17;;;9.40;74.10;;;;;;5056609;28;20438;-76
2021/04/19 02:09:35;;;;;;;15.67;12.07;;;9.30;73.90;;;;;;5068617;28;20056;-79
2021/04/19 02:12:09;;;;;;;22.10;15.63;;;9.30;74.30;;;;;;5049564;28;20017;-75
2021/04/19 02:14:53;;;;;;;16.73;12.77;;;9.20;74.30;;;;;;5062308;28;20024;-76
2021/04/19 02:17:37;;;;;;;16.63;11.00;;;9.10;74.60;;;;;;5070826;28;20097;-76
2021/04/19 02:20:25;;;;;;;15.37;10.80;;;9.00;74.90;;;;;;5056462;28;20033;-75
2021/04/19 02:22:58;;;;;;;17.33;10.33;;;9.00;75.20;;;;;;5050380;28;20021;-75
2021/04/19 02:25:30;;;;;;;13.93;9.13;;;8.90;75.40;;;;;;5050407;28;20033;-80
2021/04/19 02:28:03;;;;;;;10.73;8.17;;;8.90;75.40;;;;;;5032766;28;20372;-74
2021/04/19 02:30:35;;;;;;;14.43;8.82;;;8.80;75.50;;;;;;5059545;28;20024;-79
2021/04/19 02:33:03;;;;;;;18.05;9.40;;;8.80;75.70;;;;;;5069280;28;20028;-75
2021/04/19 02:35:32;;;;;;;14.10;9.30;;;8.70;75.90;;;;;;5068595;28;20519;-80
2021/04/19 02:37:59;;;;;;;14.53;9.10;;;8.70;76.10;;;;;;5070297;28;20028;-74
2021/04/19 02:40:27;;;;;;;17.37;10.13;;;8.70;76.10;;;;;;5062662;28;20032;-75
2021/04/19 02:42:55;;;;;;;17.40;10.20;;;8.60;76.30;;;;;;5046963;28;20040;-75
2021/04/19 02:45:22;;;;;;;16.03;10.03;;;8.60;76.40;;;;;;5030551;28;20112;-74
2021/04/19 02:47:49;;;;;;;14.77;9.67;;;8.60;76.40;;;;;;5029703;28;20072;-75
2021/04/19 02:50:21;;;;;;;16.10;8.97;;;8.50;76.60;;;;;;5051948;28;20028;-75
2021/04/19 02:52:49;;;;;;;16.25;9.43;;;8.60;76.80;;;;;;5069542;28;20097;-77
2021/04/19 02:55:18;;;;;;;17.63;9.97;;;8.60;76.70;;;;;;5069698;28;20502;-74
2021/04/19 02:57:50;;;;;;;17.43;10.87;;;8.60;76.80;;;;;;5068890;28;20059;-74
2021/04/19 03:00:17;;;;;;;14.85;8.98;;;8.60;76.60;;;;;;5070244;28;20016;-75
2021/04/19 03:02:44;;;;;;;15.10;10.07;;;8.60;76.90;;;;;;5069996;28;20024;-75
2021/04/19 03:05:13;;;;;;;14.83;9.70;;;8.60;76.90;;;;;;5069371;28;20032;-75
2021/04/19 03:07:44;;;;;;;15.23;9.60;;;8.60;76.80;;;;;;5069717;28;20036;-75
2021/04/19 03:10:17;;;;;;;15.33;9.03;;;8.50;76.90;;;;;;5056123;28;20062;-75
2021/04/19 03:12:47;;;;;;;16.27;9.95;;;8.40;77.10;;;;;;5050277;28;20017;-75
2021/04/19 03:15:17;;;;;;;15.40;10.50;;;8.40;77.10;;;;;;5030806;28;20379;-75
2021/04/19 03:17:44;;;;;;;18.07;12.17;;;8.50;77.10;;;;;;5029586;28;20061;-76
2021/04/19 03:20:17;;;;;;;15.33;12.30;;;8.50;77.00;;;;;;5029069;28;20195;-75
2021/04/19 03:22:47;;;;;;;15.27;11.45;;;8.50;77.00;;;;;;5030164;28;20021;-75
2021/04/19 03:25:13;;;;;;;13.50;10.53;;;8.50;77.00;;;;;;5030370;28;20356;-74
2021/04/19 03:27:42;;;;;;;16.40;11.30;;;8.50;76.90;;;;;;5037173;28;20816;-75
2021/04/19 03:30:09;;;;;;;17.00;11.60;;;8.60;76.90;;;;;;5070712;28;20390;-75
2021/04/19 03:32:50;;;;;;;15.43;9.97;;;8.60;76.80;;;;;;5070759;28;20356;-79
2021/04/19 03:35:22;;;;;;;15.77;10.97;;;8.70;76.80;;;;;;5071774;28;20078;-76
2021/04/19 03:37:49;;;;;;;13.83;10.60;;;8.70;76.70;;;;;;5069951;28;20138;-75
2021/04/19 03:40:33;;;;;;;14.53;10.30;;;8.70;76.60;;;;;;5070436;28;20032;-75
2021/04/19 03:43:03;;;;;;;18.30;11.57;;;8.70;76.50;;;;;;5065132;28;20485;-75
2021/04/19 03:45:34;;;;;;;15.67;10.17;;;8.70;76.50;;;;;;5070014;28;20032;-75
2021/04/19 03:48:05;;;;;;;15.53;9.73;;;8.70;76.60;;;;;;5067838;28;20020;-74
2021/04/19 03:50:34;;;;;;;16.23;9.97;;;8.70;76.40;;;;;;5068561;28;20027;-74
2021/04/19 03:53:03;;;;;;;17.07;10.70;;;8.70;76.50;;;;;;5069396;28;20278;-74
2021/04/19 03:55:29;;;;;;;21.00;12.50;;;8.70;76.50;;;;;;5070060;28;20393;-77
2021/04/19 03:57:56;;;;;;;18.70;11.63;;;8.70;76.40;;;;;;5068343;28;20457;-74
2021/04/19 04:00:23;;;;;;;23.57;16.60;;;8.70;76.50;;;;;;5070711;28;20025;-75
2021/04/19 04:02:52;;;;;;;20.47;16.33;;;8.70;76.40;;;;;;5059188;28;20043;-75
2021/04/19 04:05:19;;;;;;;28.83;15.13;;;8.80;76.50;;;;;;5049563;28;20094;-73
2021/04/19 04:07:47;;;;;;;29.30;13.23;;;8.80;76.30;;;;;;5047252;28;20390;-73
2021/04/19 04:10:13;;;;;;;22.30;12.57;;;8.80;76.10;;;;;;5051915;28;20131;-75
2021/04/19 04:12:39;;;;;;;16.80;9.97;;;8.80;76.30;;;;;;5059274;28;20071;-75
2021/04/19 04:15:05;;;;;;;20.57;10.10;;;8.80;76.30;;;;;;5047826;28;20440;-76
2021/04/19 04:17:31;;;;;;;16.30;9.73;;;8.80;76.10;;;;;;5049809;28;20071;-75
2021/04/19 04:19:57;;;;;;;13.27;9.30;;;8.90;76.30;;;;;;5049060;28;20049;-74
2021/04/19 04:22:23;;;;;;;13.37;9.60;;;8.80;76.30;;;;;;5050179;28;20036;-76
2021/04/19 04:24:49;;;;;;;15.73;9.80;;;8.90;76.50;;;;;;5050946;28;20155;-75
2021/04/19 04:27:15;;;;;;;12.50;9.53;;;9.00;76.20;;;;;;5037192;28;20407;-74
2021/04/19 04:29:41;;;;;;;13.07;8.60;;;8.90;75.90;;;;;;5054821;28;20448;-74
2021/04/19 04:32:08;;;;;;;13.10;9.30;;;8.90;75.90;;;;;;5058095;28;20490;-76
2021/04/19 04:34:33;;;;;;;18.43;9.73;;;8.90;76.00;;;;;;5053174;28;20021;-76
2021/04/19 04:37:00;;;;;;;10.80;7.93;;;8.90;76.00;;;;;;5058205;28;20166;-75
2021/04/19 04:39:26;;;;;;;16.40;10.07;;;8.90;76.10;;;;;;5071046;28;20039;-75
2021/04/19 04:41:51;;;;;;;20.73;11.23;;;8.90;75.90;;;;;;5070494;28;20028;-76
2021/04/19 04:44:34;;;;;;;20.80;11.07;;;8.90;75.70;;;;;;5055726;28;20064;-75
2021/04/19 04:47:12;;;;;;;23.60;10.40;;;8.80;75.90;;;;;;5052373;28;20479;-75
2021/04/19 04:50:16;;;;;;;28.63;11.13;;;8.80;76.10;;;;;;5072468;28;20139;-75
2021/04/19 04:52:55;;;;;;;24.57;11.67;;;8.90;76.10;;;;;;5072501;28;20028;-74
2021/04/19 04:55:23;;;;;;;16.60;10.03;;;8.90;75.80;;;;;;5072744;28;20036;-75
2021/04/19 04:57:50;;;;;;;19.93;10.50;;;8.90;75.90;;;;;;5071732;28;20131;-79
2021/04/19 05:00:19;;;;;;;24.63;11.37;;;8.90;75.80;;;;;;5072181;28;20039;-74
2021/04/19 05:02:46;;;;;;;26.23;12.50;;;8.90;75.80;;;;;;5072405;28;20020;-75
2021/04/19 05:05:14;;;;;;;26.97;12.17;;;8.90;76.00;;;;;;5070497;28;20016;-75
2021/04/19 05:07:41;;;;;;;20.90;12.77;;;8.90;75.90;;;;;;5062091;28;20494;-76
2021/04/19 05:10:08;;;;;;;16.13;10.83;;;8.90;75.50;;;;;;5051311;28;20025;-75
2021/04/19 05:12:34;;;;;;;14.50;10.03;;;8.90;75.80;;;;;;5052597;28;20035;-76
2021/04/19 05:15:10;;;;;;;13.40;9.73;;;9.00;75.90;;;;;;5049984;28;20135;-73
2021/04/19 05:17:36;;;;;;;15.67;10.57;;;9.10;75.80;;;;;;5050796;28;20029;-74
2021/04/19 05:20:06;;;;;;;14.57;10.33;;;9.00;75.30;;;;;;5050018;28;20035;-74
2021/04/19 05:22:32;;;;;;;19.87;11.53;;;9.00;75.60;;;;;;5050615;28;20068;-77
2021/04/19 05:24:57;;;;;;;15.97;10.67;;;8.90;75.50;;;;;;5051000;28;20061;-76
2021/04/19 05:27:23;;;;;;;21.30;12.23;;;8.90;75.70;;;;;;5060078;28;20064;-75
2021/04/19 05:29:49;;;;;;;16.77;11.57;;;8.90;75.70;;;;;;5070551;28;20553;-75
2021/04/19 05:32:17;;;;;;;20.67;14.07;;;8.90;75.90;;;;;;5070565;28;20116;-75
2021/04/19 05:34:43;;;;;;;20.43;14.00;;;8.90;75.70;;;;;;5070382;28;20028;-76
2021/04/19 05:37:10;;;;;;;20.60;13.77;;;8.80;75.70;;;;;;5070740;28;20059;-75
2021/04/19 05:39:36;;;;;;;22.17;14.60;;;8.90;75.80;;;;;;5070250;28;20031;-74
2021/04/19 05:42:03;;;;;;;21.47;13.53;;;8.90;75.80;;;;;;5069460;28;20028;-75
2021/04/19 05:44:30;;;;;;;18.83;14.03;;;8.90;75.80;;;;;;5052677;28;20735;-75
2021/04/19 05:46:57;;;;;;;23.63;14.23;;;8.90;75.80;;;;;;5069629;28;20040;-79
2021/04/19 05:49:23;;;;;;;36.87;17.47;;;9.00;75.80;;;;;;5071501;28;20371;-74
2021/04/19 05:51:50;;;;;;;36.10;15.73;;;9.00;75.70;;;;;;5069978;28;20123;-73
2021/04/19 05:54:17;;;;;;;32.17;15.17;;;9.10;75.60;;;;;;5068953;28;20024;-75
2021/04/19 05:57:04;;;;;;;31.97;14.33;;;9.20;75.40;;;;;;5070786;28;20048;-75
2021/04/19 05:59:41;;;;;;;19.10;11.87;;;9.20;75.30;;;;;;5071212;28;20033;-76
2021/04/19 06:02:09;;;;;;;16.70;10.80;;;9.30;75.40;;;;;;5064697;28;20013;-75
2021/04/19 06:04:44;;;;;;;22.53;11.93;;;9.40;75.10;;;;;;5066262;28;20577;-74
2021/04/19 06:07:17;;;;;;;17.87;10.80;;;9.40;75.10;;;;;;5065503;28;20040;-74
2021/04/19 06:10:08;;;;;;;16.20;10.37;;;9.40;75.20;;;;;;5048400;28;20029;-75
2021/04/19 06:12:36;;;;;;;16.53;10.23;;;9.40;75.30;;;;;;5059313;28;20036;-75
2021/04/19 06:15:08;;;;;;;16.83;10.90;;;9.40;75.90;;;;;;5062312;28;20112;-78
2021/04/19 06:17:35;;;;;;;13.45;9.77;;;9.50;76.10;;;;;;5048333;28;20079;-78
2021/04/19 06:20:01;;;;;;;18.93;11.37;;;9.40;76.60;;;;;;5030931;28;20029;-83
2021/04/19 06:22:27;;;;;;;14.67;10.83;;;9.40;76.70;;;;;;5039626;28;20021;-79
2021/04/19 06:24:53;;;;;;;15.03;10.93;;;9.40;77.30;;;;;;5016430;28;20036;-78
2021/04/19 06:27:28;;;;;;;17.43;10.80;;;9.30;77.10;;;;;;5048809;28;20036;-79
2021/04/19 06:29:54;;;;;;;14.70;9.83;;;9.30;77.40;;;;;;5051212;28;20029;-78
2021/04/19 06:32:22;;;;;;;16.60;9.43;;;9.30;77.90;;;;;;5057180;28;20031;-79
2021/04/19 06:34:48;;;;;;;16.00;10.53;;;9.50;78.10;;;;;;5038526;28;20052;-76
2021/04/19 06:37:14;;;;;;;17.10;10.67;;;9.50;77.50;;;;;;5038660;28;20040;-78
2021/04/19 06:39:40;;;;;;;12.73;9.73;;;9.60;77.60;;;;;;5069561;28;20139;-76
2021/04/19 06:42:06;;;;;;;16.53;11.10;;;9.60;77.50;;;;;;5050843;28;20032;-77
2021/04/19 06:44:32;;;;;;;16.70;11.27;;;9.60;77.30;;;;;;5052382;28;20398;-78
2021/04/19 06:46:58;;;;;;;18.87;10.57;;;9.60;77.50;;;;;;5049918;28;20028;-76
2021/04/19 06:49:25;;;;;;;12.73;10.50;;;9.50;77.20;;;;;;5051154;28;20039;-76
2021/04/19 06:51:53;;;;;;;15.63;10.73;;;9.40;77.20;;;;;;5068148;28;20161;-81
2021/04/19 06:54:19;;;;;;;13.23;10.53;;;9.40;77.30;;;;;;5071619;28;20058;-78
2021/04/19 06:56:47;;;;;;;19.10;11.83;;;9.30;77.90;;;;;;5070895;28;20045;-79
2021/04/19 06:59:23;;;;;;;19.37;13.07;;;9.40;77.50;;;;;;5068065;28;20041;-78
2021/04/19 07:01:53;;;;;;;29.63;13.77;;;9.40;77.70;;;;;;5050046;28;20048;-79
2021/04/19 07:04:29;;;;;;;28.20;13.30;;;9.30;77.70;;;;;;5042965;28;20437;-79
2021/04/19 07:06:57;;;;;;;40.43;15.73;;;9.10;78.00;;;;;;5050938;28;20047;-79
2021/04/19 07:09:27;;;;;;;35.47;13.90;;;9.10;78.20;;;;;;5049293;28;20029;-81
2021/04/19 07:11:58;;;;;;;39.07;14.70;;;9.10;78.80;;;;;;5042990;28;20025;-80
2021/04/19 07:14:29;;;;;;;37.57;14.77;;;9.20;78.90;;;;;;5058943;28;20047;-79
2021/04/19 07:16:56;;;;;;;31.37;15.63;;;9.20;78.70;;;;;;5049612;28;20413;-79
2021/04/19 07:19:22;;;;;;;39.73;15.67;;;9.20;78.60;;;;;;5058177;28;20021;-79
2021/04/19 07:21:48;;;;;;;27.40;13.90;;;9.20;79.50;;;;;;5049161;28;20048;-80
2021/04/19 07:24:14;;;;;;;30.53;14.60;;;9.30;79.30;;;;;;5039244;28;20025;-81
2021/04/19 07:26:42;;;;;;;23.43;13.77;;;9.40;79.60;;;;;;5049637;28;20060;-81
2021/04/19 07:29:08;;;;;;;23.27;14.97;;;9.50;79.70;;;;;;5047759;28;20739;-81
2021/04/19 07:31:51;;;;;;;24.23;14.37;;;9.60;79.60;;;;;;5046997;28;20032;-80
2021/04/19 07:34:18;;;;;;;24.40;15.45;;;9.70;79.50;;;;;;5047673;28;20382;-80
2021/04/19 07:36:53;;;;;;;21.57;16.57;;;9.70;79.30;;;;;;5047451;28;20040;-79
2021/04/19 07:39:21;;;;;;;26.47;16.40;;;9.70;79.50;;;;;;5048900;28;20029;-79
2021/04/19 07:41:49;;;;;;;24.87;16.67;;;9.70;79.50;;;;;;5049669;28;20025;-79
2021/04/19 07:44:42;;;;;;;25.30;16.57;;;9.80;79.30;;;;;;5050177;28;20466;-80
2021/04/19 07:47:26;;;;;;;21.65;16.23;;;9.80;79.20;;;;;;5049755;28;20116;-80
2021/04/19 07:49:58;;;;;;;26.43;17.53;;;9.90;79.00;;;;;;5047615;28;20032;-80
2021/04/19 07:52:24;;;;;;;28.53;17.90;;;9.90;79.10;;;;;;5044478;28;20037;-80
2021/04/19 07:55:02;;;;;;;27.50;18.10;;;9.90;79.10;;;;;;5049749;28;20108;-79
2021/04/19 07:57:28;;;;;;;22.60;17.10;;;9.90;79.00;;;;;;5067719;28;20483;-78
2021/04/19 07:59:53;;;;;;;29.77;18.00;;;9.90;78.90;;;;;;5076173;28;20036;-77
2021/04/19 08:02:20;;;;;;;32.70;18.63;;;9.90;79.00;;;;;;5072762;28;20028;-77
2021/04/19 08:04:48;;;;;;;33.27;18.50;;;9.90;79.30;;;;;;5072734;28;20040;-79
2021/04/19 08:07:25;;;;;;;26.77;19.10;;;9.90;79.30;;;;;;5073499;28;20126;-80
2021/04/19 08:10:00;;;;;;;34.27;21.33;;;9.90;79.10;;;;;;5073343;28;20116;-78
2021/04/19 08:12:35;;;;;;;32.33;20.40;;;10.00;79.20;;;;;;5072614;28;20373;-78
2021/04/19 08:15:04;;;;;;;27.53;18.70;;;10.20;79.10;;;;;;5064733;28;20033;-78
2021/04/19 08:17:31;;;;;;;33.97;21.67;;;10.20;78.90;;;;;;5051251;28;20037;-77
2021/04/19 08:19:57;;;;;;;32.97;21.70;;;10.40;78.90;;;;;;5039291;28;20033;-79
2021/04/19 08:22:29;;;;;;;33.63;22.77;;;10.50;78.90;;;;;;5049512;28;20029;-78
2021/04/19 08:25:27;;;;;;;37.50;25.90;;;10.60;78.60;;;;;;5051624;28;20102;-78
2021/04/19 08:28:08;;;;;;;28.63;20.90;;;10.80;78.40;;;;;;4986870;28;20115;-77
2021/04/19 08:30:34;;;;;;;27.17;18.90;;;10.90;77.50;;;;;;5047508;28;20025;-76
2021/04/19 08:33:00;;;;;;;30.00;22.43;;;10.90;77.20;;;;;;5050956;28;20025;-78
2021/04/19 08:35:28;;;;;;;29.63;19.60;;;10.90;77.30;;;;;;5048050;28;20032;-78
2021/04/19 08:38:00;;;;;;;30.07;20.63;;;11.00;77.40;;;;;;5059092;28;20025;-78
2021/04/19 08:40:28;;;;;;;27.93;19.77;;;11.00;77.30;;;;;;5056106;28;20021;-78
2021/04/19 08:42:55;;;;;;;28.47;19.53;;;11.00;77.20;;;;;;5053605;28;20322;-79
2021/04/19 08:45:23;;;;;;;29.53;19.10;;;11.00;77.00;;;;;;5057075;28;20025;-80
2021/04/19 08:47:49;;;;;;;31.57;21.40;;;10.90;77.10;;;;;;5051643;28;20189;-79
2021/04/19 08:50:21;;;;;;;30.57;20.17;;;10.90;77.50;;;;;;5050762;28;20434;-79
2021/04/19 08:52:47;;;;;;;29.67;21.35;;;11.00;77.60;;;;;;5050652;28;20108;-80
2021/04/19 08:55:14;;;;;;;33.27;23.13;;;11.00;77.80;;;;;;5066716;28;20040;-79
2021/04/19 08:57:47;;;;;;;35.70;23.87;;;11.00;77.50;;;;;;5069596;28;20063;-79
2021/04/19 09:00:15;;;;;;;;;;;11.00;77.60;;;;;;5051824;28;20040;-79
2021/04/19 09:02:40;;;;;;;33.67;23.57;;;11.10;78.00;;;;;;5058668;28;20375;-79
2021/04/19 09:05:07;;;;;;;30.40;21.87;;;11.20;77.40;;;;;;5049867;28;20029;-79
2021/04/19 09:07:35;;;;;;;37.43;27.07;;;11.20;77.20;;;;;;5049929;28;20033;-79
2021/04/19 09:10:02;;;;;;;33.83;26.00;;;11.30;77.30;;;;;;5064014;28;20040;-79
2021/04/19 09:12:30;;;;;;;34.97;26.03;;;11.40;77.10;;;;;;5055501;28;20029;-81
2021/04/19 09:15:11;;;;;;;36.03;26.53;;;11.50;77.00;;;;;;5056866;28;20482;-79
2021/04/19 09:17:39;;;;;;;41.00;27.33;;;11.50;76.80;;;;;;5049239;28;20087;-80
2021/04/19 09:20:08;;;;;;;48.13;30.80;;;11.40;76.70;;;;;;5052607;28;20038;-79
2021/04/19 09:22:34;;;;;;;42.93;29.60;;;11.40;76.90;;;;;;5049916;28;20053;-80
2021/04/19 09:25:12;;;;;;;40.70;26.70;;;11.50;76.60;;;;;;5057760;28;20041;-79
2021/04/19 09:27:53;;;;;;;60.80;36.63;;;11.40;75.90;;;;;;5062882;28;20144;-80
2021/04/19 09:30:28;;;;;;;50.97;32.40;;;11.30;76.00;;;;;;5045504;28;20051;-79
2021/04/19 09:33:03;;;;;;;56.93;36.27;;;11.10;75.90;;;;;;5059993;28;20051;-78
2021/04/19 09:35:59;;;;;;;46.03;32.03;;;11.10;76.90;;;;;;5048791;28;20064;-80
2021/04/19 09:38:31;;;;;;;52.03;35.57;;;11.20;76.90;;;;;;5049793;28;20079;-80
2021/04/19 09:40:58;;;;;;;51.43;34.57;;;11.10;76.60;;;;;;5051532;28;20032;-80
2021/04/19 09:43:37;;;;;;;43.77;29.67;;;10.90;76.40;;;;;;5049945;28;20029;-80
2021/04/19 09:46:15;;;;;;;42.57;31.07;;;10.50;76.90;;;;;;5049855;28;20037;-80
2021/04/19 09:48:43;;;;;;;39.13;29.00;;;10.20;77.50;;;;;;5050803;28;20033;-79
2021/04/19 09:51:15;;;;;;;43.90;33.33;;;9.90;78.80;;;;;;5052371;28;20029;-79
2021/04/19 09:53:52;;;;;;;39.33;28.60;;;9.80;80.00;;;;;;5051430;28;20017;-80
2021/04/19 09:56:23;;;;;;;35.07;26.73;;;9.70;80.20;;;;;;5048909;28;20495;-81
2021/04/19 09:58:49;;;;;;;38.60;26.90;;;9.50;80.60;;;;;;5061301;28;20318;-81
2021/04/19 10:01:17;;;;;;;35.60;25.93;;;9.60;81.30;;;;;;5058543;28;20033;-81
2021/04/19 10:03:50;;;;;;;36.50;25.77;;;9.70;81.20;;;;;;5040078;28;20112;-80
2021/04/19 10:06:20;;;;;;;38.73;27.23;;;9.60;81.20;;;;;;5052249;28;20039;-81
2021/04/19 10:08:48;;;;;;;39.87;28.80;;;9.40;81.50;;;;;;5068334;28;20177;-80
2021/04/19 10:11:15;;;;;;;40.37;28.07;;;9.30;82.20;;;;;;5067456;28;20037;-80
2021/04/19 10:13:40;;;;;;;37.07;28.13;;;9.50;81.90;;;;;;5056051;28;20521;-80
2021/04/19 10:16:12;;;;;;;38.40;28.03;;;9.50;81.60;;;;;;5050713;28;20037;-80
2021/04/19 10:18:40;;;;;;;39.63;27.93;;;9.50;81.80;;;;;;5067836;28;20021;-81
2021/04/19 10:21:08;;;;;;;36.83;27.57;;;9.40;82.00;;;;;;5053412;28;20021;-80
2021/04/19 10:23:34;;;;;;;39.80;28.03;;;9.50;82.20;;;;;;5058819;28;20474;-80
2021/04/19 10:26:00;;;;;;;43.57;29.33;;;9.60;82.30;;;;;;5068904;28;20426;-80
2021/04/19 10:28:26;;;;;;;36.07;27.00;;;9.80;81.70;;;;;;5052165;28;20040;-81
2021/04/19 10:30:52;;;;;;;36.03;26.13;;;9.70;81.30;;;;;;5048258;28;20083;-81
2021/04/19 10:33:26;;;;;;;34.60;27.57;;;9.60;81.50;;;;;;5049836;28;20036;-81
2021/04/19 10:35:52;;;;;;;38.57;28.27;;;9.50;81.70;;;;;;5046521;28;20033;-81
2021/04/19 10:38:25;;;;;;;36.60;27.80;;;9.30;82.20;;;;;;5035776;28;20669;-80
2021/04/19 10:40:59;;;;;;;41.83;28.50;;;9.30;82.70;;;;;;5045910;28;20071;-81
2021/04/19 10:43:25;;;;;;;46.17;30.63;;;9.60;82.90;;;;;;5037335;28;20034;-80
2021/04/19 10:45:50;;;;;;;46.80;32.50;;;9.80;82.10;;;;;;5055568;28;20080;-80
2021/04/19 10:48:27;;;;;;;46.47;31.97;;;9.90;82.00;;;;;;5065522;28;20032;-80
2021/04/19 10:50:55;;;;;;;43.83;32.03;;;10.10;81.70;;;;;;5051640;28;20843;-79
2021/04/19 10:53:38;;;;;;;60.90;40.77;;;10.10;81.20;;;;;;5029128;28;20091;-80
2021/04/19 10:56:04;;;;;;;76.30;52.37;;;10.20;81.40;;;;;;5029154;28;20037;-80
2021/04/19 10:58:32;;;;;;;67.77;46.40;;;10.50;81.50;;;;;;5054883;28;20371;-80
2021/04/19 11:00:59;;;;;;;70.03;47.33;;;10.70;80.60;;;;;;5047206;28;20028;-81
2021/04/19 11:03:33;;;;;;;55.67;38.00;;;10.80;80.20;;;;;;5034223;28;20029;-77
2021/04/19 11:06:01;;;;;;;73.10;48.47;;;10.80;79.60;;;;;;5044790;28;20033;-79
2021/04/19 11:08:54;;;;;;;79.83;52.13;;;11.00;80.00;;;;;;5048213;28;20044;-80
2021/04/19 11:11:39;;;;;;;82.15;52.33;;;11.20;79.60;;;;;;5042862;28;20174;-80
2021/04/19 11:14:17;;;;;;;49.10;34.03;;;11.40;79.20;;;;;;5051209;28;20108;-81
2021/04/19 11:16:59;;;;;;;74.20;49.00;;;11.60;77.90;;;;;;5048224;28;20032;-79
2021/04/19 11:19:30;;;;;;;58.03;40.80;;;11.50;77.50;;;;;;5049090;28;20083;-80
2021/04/19 11:21:56;;;;;;;44.17;33.00;;;11.60;77.70;;;;;;5048957;28;20505;-80
2021/04/19 11:24:33;;;;;;;57.80;38.47;;;11.60;77.40;;;;;;5048777;28;20029;-80
2021/04/19 11:27:07;;;;;;;71.53;47.13;;;11.60;77.30;;;;;;5048715;28;20033;-80
2021/04/19 11:29:37;;;;;;;51.17;34.47;;;11.70;76.90;;;;;;5050040;28;20040;-80
2021/04/19 11:32:03;;;;;;;39.33;28.23;;;11.70;76.20;;;;;;5050919;28;20220;-80
2021/04/19 11:34:38;;;;;;;51.00;37.13;;;11.70;76.20;;;;;;5054080;28;20079;-79
2021/04/19 11:37:04;;;;;;;40.83;30.43;;;11.80;76.90;;;;;;5053221;28;20094;-80
2021/04/19 11:39:38;;;;;;;63.87;44.70;;;11.90;76.60;;;;;;5052517;28;20033;-80
2021/04/19 11:42:24;;;;;;;60.43;42.20;;;12.00;76.10;;;;;;5051884;28;20031;-79
2021/04/19 11:44:50;;;;;;;61.13;43.57;;;12.20;75.70;;;;;;5054637;28;20039;-80
2021/04/19 11:47:20;;;;;;;57.07;40.70;;;12.60;75.60;;;;;;5055178;28;20037;-79
2021/04/19 11:49:49;;;;;;;48.67;35.43;;;12.90;75.30;;;;;;5053776;28;20040;-80
2021/04/19 11:52:15;;;;;;;54.97;38.53;;;13.20;74.80;;;;;;5054714;28;20052;-80
2021/04/19 11:54:41;;;;;;;76.57;50.83;;;13.30;74.10;;;;;;5054296;28;20033;-80
2021/04/19 11:57:06;;;;;;;72.90;50.47;;;13.40;73.90;;;;;;5055432;28;20053;-80
2021/04/19 11:59:32;;;;;;;49.07;36.47;;;13.50;73.40;;;;;;5052907;28;20443;-78
2021/04/19 12:02:01;;;;;;;55.97;39.27;;;13.50;73.10;;;;;;5052380;28;20029;-78
2021/04/19 12:04:26;;;;;;;52.53;36.77;;;13.50;72.50;;;;;;5051964;28;20037;-80
2021/04/19 12:06:52;;;;;;;55.60;38.97;;;13.40;72.10;;;;;;5047955;28;20454;-80
2021/04/19 12:09:18;;;;;;;56.17;39.10;;;13.30;72.30;;;;;;5052503;28;20083;-78
2021/04/19 12:11:43;;;;;;;41.27;31.33;;;13.20;72.60;;;;;;5051774;28;20028;-79
2021/04/19 12:14:09;;;;;;;37.13;29.07;;;13.10;73.00;;;;;;5052179;28;20482;-81
2021/04/19 12:16:34;;;;;;;61.63;37.40;;;13.10;73.40;;;;;;5035599;28;20052;-81
2021/04/19 12:19:00;;;;;;;63.00;38.40;;;13.10;74.40;;;;;;5034627;28;20032;-81
2021/04/19 12:21:26;;;;;;;62.83;37.67;;;13.20;74.90;;;;;;5035072;28;20029;-80
2021/04/19 12:23:52;;;;;;;38.53;27.87;;;13.30;75.20;;;;;;5051892;28;20029;-81
2021/04/19 12:26:18;;;;;;;49.40;35.77;;;13.30;73.80;;;;;;5053039;28;20041;-79
2021/04/19 12:28:44;;;;;;;31.80;24.90;;;13.30;73.40;;;;;;5051824;28;20474;-77
2021/04/19 12:31:09;;;;;;;35.93;28.83;;;13.20;73.10;;;;;;5031085;28;20029;-79
2021/04/19 12:33:35;;;;;;;40.73;30.67;;;13.10;73.50;;;;;;5015139;28;20033;-80
2021/04/19 12:36:00;;;;;;;53.47;35.93;;;12.90;73.50;;;;;;5032508;28;20352;-81
2021/04/19 12:38:28;;;;;;;48.23;36.57;;;12.90;74.00;;;;;;5015695;28;20041;-79
2021/04/19 12:40:53;;;;;;;47.33;34.97;;;13.00;74.70;;;;;;5031509;28;20026;-80
2021/04/19 12:43:19;;;;;;;44.07;34.13;;;13.30;74.20;;;;;;5033144;28;20135;-79
2021/04/19 12:45:45;;;;;;;46.07;36.40;;;13.60;73.60;;;;;;5051473;28;20032;-79
2021/04/19 12:48:12;;;;;;;43.60;32.77;;;13.90;73.00;;;;;;5018868;28;20475;-80